sensor_id;sensor_type;location;lat;lon;timestamp;P1;durP1;ratioP1;P2;durP2;ratioP2
38264;SDS011;24062;47.480;8.768;2023-08-20T00:01:52;4.97;;;3.15;;
38264;SDS011;24062;47.480;8.768;2023-08-20T00:04:23;3.78;;;3.10;;
38264;SDS011;24062;47.480;8.768;2023-08-20T00:06:54;3.58;;;3.17;;
38264;SDS011;24062;47.480;8.768;2023-08-20T00:09:21;4.43;;;3.30;;
38264;SDS011;24062;47.480;8.768;2023-08-20T00:11:49;3.45;;;2.90;;
38264;SDS011;24062;47.480;8.768;2023-08-20T00:14:16;3.78;;;3.15;;
38264;SDS011;24062;47.480;8.768;2023-08-20T00:16:43;3.67;;;2.90;;
38264;SDS011;24062;47.480;8.768;2023-08-20T00:19:12;5.80;;;3.40;;
38264;SDS011;24062;47.480;8.768;2023-08-20T00:21:39;4.07;;;3.08;;
38264;SDS011;24062;47.480;8.768;2023-08-20T00:24:10;3.45;;;3.15;;
38264;SDS011;24062;47.480;8.768;2023-08-20T00:26:38;3.83;;;3.42;;
38264;SDS011;24062;47.480;8.768;2023-08-20T00:29:06;3.55;;;3.00;;
38264;SDS011;24062;47.480;8.768;2023-08-20T00:31:32;3.15;;;2.92;;
38264;SDS011;24062;47.480;8.768;2023-08-20T00:33:59;5.40;;;3.42;;
38264;SDS011;24062;47.480;8.768;2023-08-20T00:36:26;6.00;;;3.45;;
38264;SDS011;24062;47.480;8.768;2023-08-20T00:38:53;3.03;;;2.72;;
38264;SDS011;24062;47.480;8.768;2023-08-20T00:41:22;3.30;;;2.75;;
38264;SDS011;24062;47.480;8.768;2023-08-20T00:43:48;4.43;;;3.22;;
38264;SDS011;24062;47.480;8.768;2023-08-20T00:46:15;3.67;;;3.38;;
38264;SDS011;24062;47.480;8.768;2023-08-20T00:48:42;4.50;;;2.88;;
38264;SDS011;24062;47.480;8.768;2023-08-20T00:51:09;3.05;;;2.83;;
38264;SDS011;24062;47.480;8.768;2023-08-20T00:53:36;3.45;;;3.10;;
38264;SDS011;24062;47.480;8.768;2023-08-20T00:56:03;3.47;;;3.17;;
38264;SDS011;24062;47.480;8.768;2023-08-20T00:58:32;3.65;;;3.35;;
38264;SDS011;24062;47.480;8.768;2023-08-20T01:00:59;3.33;;;2.88;;
38264;SDS011;24062;47.480;8.768;2023-08-20T01:03:26;3.75;;;3.45;;
38264;SDS011;24062;47.480;8.768;2023-08-20T01:05:58;5.15;;;2.70;;
38264;SDS011;24062;47.480;8.768;2023-08-20T01:08:36;3.35;;;2.95;;
38264;SDS011;24062;47.480;8.768;2023-08-20T01:11:06;4.97;;;2.90;;
38264;SDS011;24062;47.480;8.768;2023-08-20T01:13:43;3.50;;;3.20;;
38264;SDS011;24062;47.480;8.768;2023-08-20T01:16:11;3.20;;;2.90;;
38264;SDS011;24062;47.480;8.768;2023-08-20T01:18:38;6.00;;;3.15;;
38264;SDS011;24062;47.480;8.768;2023-08-20T01:21:06;3.60;;;3.30;;
38264;SDS011;24062;47.480;8.768;2023-08-20T01:26:51;4.40;;;3.22;;
38264;SDS011;24062;47.480;8.768;2023-08-20T01:29:26;3.17;;;2.78;;
38264;SDS011;24062;47.480;8.768;2023-08-20T01:31:54;4.18;;;3.78;;
38264;SDS011;24062;47.480;8.768;2023-08-20T01:34:21;3.40;;;3.10;;
38264;SDS011;24062;47.480;8.768;2023-08-20T01:36:48;3.35;;;3.05;;
38264;SDS011;24062;47.480;8.768;2023-08-20T01:39:15;3.15;;;2.90;;
38264;SDS011;24062;47.480;8.768;2023-08-20T01:41:43;3.92;;;3.30;;
38264;SDS011;24062;47.480;8.768;2023-08-20T01:44:10;3.30;;;2.67;;
38264;SDS011;24062;47.480;8.768;2023-08-20T01:46:39;4.05;;;3.20;;
38264;SDS011;24062;47.480;8.768;2023-08-20T01:49:06;3.10;;;2.88;;
38264;SDS011;24062;47.480;8.768;2023-08-20T01:51:33;3.35;;;2.88;;
38264;SDS011;24062;47.480;8.768;2023-08-20T01:54:01;3.40;;;3.10;;
38264;SDS011;24062;47.480;8.768;2023-08-20T01:56:28;5.20;;;3.28;;
38264;SDS011;24062;47.480;8.768;2023-08-20T01:58:55;4.43;;;3.30;;
38264;SDS011;24062;47.480;8.768;2023-08-20T02:01:22;4.75;;;3.33;;
38264;SDS011;24062;47.480;8.768;2023-08-20T02:03:51;3.30;;;3.00;;
38264;SDS011;24062;47.480;8.768;2023-08-20T02:06:18;3.42;;;3.13;;
38264;SDS011;24062;47.480;8.768;2023-08-20T02:08:46;3.30;;;3.00;;
38264;SDS011;24062;47.480;8.768;2023-08-20T02:11:13;3.80;;;3.38;;
38264;SDS011;24062;47.480;8.768;2023-08-20T02:13:40;6.47;;;2.95;;
38264;SDS011;24062;47.480;8.768;2023-08-20T02:16:07;3.35;;;2.83;;
38264;SDS011;24062;47.480;8.768;2023-08-20T02:18:33;4.93;;;2.80;;
38264;SDS011;24062;47.480;8.768;2023-08-20T02:21:02;4.03;;;3.25;;
38264;SDS011;24062;47.480;8.768;2023-08-20T02:23:29;5.28;;;3.30;;
38264;SDS011;24062;47.480;8.768;2023-08-20T02:25:56;3.35;;;3.10;;
38264;SDS011;24062;47.480;8.768;2023-08-20T02:28:23;3.40;;;3.10;;
38264;SDS011;24062;47.480;8.768;2023-08-20T02:30:50;3.72;;;2.90;;
38264;SDS011;24062;47.480;8.768;2023-08-20T02:33:17;3.05;;;2.80;;
38264;SDS011;24062;47.480;8.768;2023-08-20T02:35:44;2.97;;;2.60;;
38264;SDS011;24062;47.480;8.768;2023-08-20T02:38:12;3.10;;;2.80;;
38264;SDS011;24062;47.480;8.768;2023-08-20T02:40:40;3.10;;;2.65;;
38264;SDS011;24062;47.480;8.768;2023-08-20T02:43:07;3.75;;;3.05;;
38264;SDS011;24062;47.480;8.768;2023-08-20T02:45:39;3.10;;;2.80;;
38264;SDS011;24062;47.480;8.768;2023-08-20T02:48:07;3.58;;;2.80;;
38264;SDS011;24062;47.480;8.768;2023-08-20T02:50:34;3.47;;;3.17;;
38264;SDS011;24062;47.480;8.768;2023-08-20T02:53:01;3.55;;;3.20;;
38264;SDS011;24062;47.480;8.768;2023-08-20T02:55:29;3.22;;;2.92;;
38264;SDS011;24062;47.480;8.768;2023-08-20T02:57:57;3.88;;;3.33;;
38264;SDS011;24062;47.480;8.768;2023-08-20T03:00:24;2.95;;;2.75;;
38264;SDS011;24062;47.480;8.768;2023-08-20T03:02:51;3.00;;;2.65;;
38264;SDS011;24062;47.480;8.768;2023-08-20T03:05:18;3.30;;;3.00;;
38264;SDS011;24062;47.480;8.768;2023-08-20T03:07:45;3.15;;;2.80;;
38264;SDS011;24062;47.480;8.768;2023-08-20T03:10:12;4.28;;;2.95;;
38264;SDS011;24062;47.480;8.768;2023-08-20T03:12:40;2.83;;;2.60;;
38264;SDS011;24062;47.480;8.768;2023-08-20T03:15:07;6.30;;;3.03;;
38264;SDS011;24062;47.480;8.768;2023-08-20T03:17:34;3.30;;;3.00;;
38264;SDS011;24062;47.480;8.768;2023-08-20T03:20:01;3.08;;;2.85;;
38264;SDS011;24062;47.480;8.768;2023-08-20T03:22:31;3.35;;;3.10;;
38264;SDS011;24062;47.480;8.768;2023-08-20T03:24:58;3.58;;;3.28;;
38264;SDS011;24062;47.480;8.768;2023-08-20T03:27:25;5.70;;;2.65;;
38264;SDS011;24062;47.480;8.768;2023-08-20T03:29:54;5.57;;;3.05;;
38264;SDS011;24062;47.480;8.768;2023-08-20T03:32:21;3.05;;;2.75;;
38264;SDS011;24062;47.480;8.768;2023-08-20T03:34:48;3.85;;;3.47;;
38264;SDS011;24062;47.480;8.768;2023-08-20T03:37:15;4.18;;;2.72;;
38264;SDS011;24062;47.480;8.768;2023-08-20T03:39:42;4.70;;;3.33;;
38264;SDS011;24062;47.480;8.768;2023-08-20T03:42:09;3.20;;;2.90;;
38264;SDS011;24062;47.480;8.768;2023-08-20T03:44:37;3.65;;;2.65;;
38264;SDS011;24062;47.480;8.768;2023-08-20T03:47:05;3.00;;;2.70;;
38264;SDS011;24062;47.480;8.768;2023-08-20T03:49:32;3.05;;;2.50;;
38264;SDS011;24062;47.480;8.768;2023-08-20T03:51:59;3.72;;;3.17;;
38264;SDS011;24062;47.480;8.768;2023-08-20T03:54:27;3.10;;;2.90;;
38264;SDS011;24062;47.480;8.768;2023-08-20T03:56:54;3.50;;;3.20;;
38264;SDS011;24062;47.480;8.768;2023-08-20T03:59:21;2.53;;;2.33;;
38264;SDS011;24062;47.480;8.768;2023-08-20T04:01:48;3.25;;;2.70;;
38264;SDS011;24062;47.480;8.768;2023-08-20T04:04:17;2.83;;;2.63;;
38264;SDS011;24062;47.480;8.768;2023-08-20T04:06:43;2.70;;;2.50;;
38264;SDS011;24062;47.480;8.768;2023-08-20T04:09:10;2.95;;;2.63;;
38264;SDS011;24062;47.480;8.768;2023-08-20T04:11:37;2.88;;;2.67;;
38264;SDS011;24062;47.480;8.768;2023-08-20T04:14:04;3.55;;;2.80;;
38264;SDS011;24062;47.480;8.768;2023-08-20T04:16:31;2.97;;;2.78;;
38264;SDS011;24062;47.480;8.768;2023-08-20T04:18:58;3.03;;;2.72;;
38264;SDS011;24062;47.480;8.768;2023-08-20T04:21:26;2.85;;;2.42;;
38264;SDS011;24062;47.480;8.768;2023-08-20T04:23:53;3.17;;;2.67;;
38264;SDS011;24062;47.480;8.768;2023-08-20T04:26:20;3.03;;;2.83;;
38264;SDS011;24062;47.480;8.768;2023-08-20T04:28:47;2.67;;;2.47;;
38264;SDS011;24062;47.480;8.768;2023-08-20T04:31:14;3.17;;;2.88;;
38264;SDS011;24062;47.480;8.768;2023-08-20T04:33:41;4.82;;;2.85;;
38264;SDS011;24062;47.480;8.768;2023-08-20T04:36:08;3.10;;;2.80;;
38264;SDS011;24062;47.480;8.768;2023-08-20T04:38:36;3.67;;;2.78;;
38264;SDS011;24062;47.480;8.768;2023-08-20T04:41:03;3.58;;;3.33;;
38264;SDS011;24062;47.480;8.768;2023-08-20T04:43:30;3.58;;;3.28;;
38264;SDS011;24062;47.480;8.768;2023-08-20T04:45:57;3.35;;;3.05;;
38264;SDS011;24062;47.480;8.768;2023-08-20T04:48:24;2.90;;;2.55;;
38264;SDS011;24062;47.480;8.768;2023-08-20T04:50:50;2.70;;;2.50;;
38264;SDS011;24062;47.480;8.768;2023-08-20T04:53:17;4.03;;;3.67;;
38264;SDS011;24062;47.480;8.768;2023-08-20T04:55:46;3.53;;;3.00;;
38264;SDS011;24062;47.480;8.768;2023-08-20T04:58:12;5.30;;;3.45;;
38264;SDS011;24062;47.480;8.768;2023-08-20T05:00:39;3.88;;;2.85;;
38264;SDS011;24062;47.480;8.768;2023-08-20T05:03:06;4.85;;;2.90;;
38264;SDS011;24062;47.480;8.768;2023-08-20T05:05:33;4.00;;;3.15;;
38264;SDS011;24062;47.480;8.768;2023-08-20T05:08:00;2.80;;;2.60;;
38264;SDS011;24062;47.480;8.768;2023-08-20T05:10:27;3.53;;;3.22;;
38264;SDS011;24062;47.480;8.768;2023-08-20T05:12:56;3.05;;;2.75;;
38264;SDS011;24062;47.480;8.768;2023-08-20T05:15:23;3.38;;;3.08;;
38264;SDS011;24062;47.480;8.768;2023-08-20T05:17:49;4.93;;;3.58;;
38264;SDS011;24062;47.480;8.768;2023-08-20T05:20:16;3.70;;;3.03;;
38264;SDS011;24062;47.480;8.768;2023-08-20T05:22:43;3.05;;;2.65;;
38264;SDS011;24062;47.480;8.768;2023-08-20T05:25:10;4.68;;;2.95;;
38264;SDS011;24062;47.480;8.768;2023-08-20T05:27:37;4.00;;;3.10;;
38264;SDS011;24062;47.480;8.768;2023-08-20T05:30:06;3.53;;;3.15;;
38264;SDS011;24062;47.480;8.768;2023-08-20T05:32:34;3.03;;;2.83;;
38264;SDS011;24062;47.480;8.768;2023-08-20T05:35:01;4.63;;;3.20;;
38264;SDS011;24062;47.480;8.768;2023-08-20T05:37:29;3.58;;;3.30;;
38264;SDS011;24062;47.480;8.768;2023-08-20T05:39:56;3.28;;;2.97;;
38264;SDS011;24062;47.480;8.768;2023-08-20T05:42:23;3.92;;;3.13;;
38264;SDS011;24062;47.480;8.768;2023-08-20T05:44:50;3.83;;;3.03;;
38264;SDS011;24062;47.480;8.768;2023-08-20T05:47:18;3.03;;;2.75;;
38264;SDS011;24062;47.480;8.768;2023-08-20T05:49:45;3.55;;;3.25;;
38264;SDS011;24062;47.480;8.768;2023-08-20T05:52:12;3.53;;;3.22;;
38264;SDS011;24062;47.480;8.768;2023-08-20T05:54:38;4.70;;;2.90;;
38264;SDS011;24062;47.480;8.768;2023-08-20T05:57:05;3.42;;;3.13;;
38264;SDS011;24062;47.480;8.768;2023-08-20T05:59:32;4.45;;;3.53;;
38264;SDS011;24062;47.480;8.768;2023-08-20T06:02:00;3.22;;;2.92;;
38264;SDS011;24062;47.480;8.768;2023-08-20T06:04:29;3.33;;;3.03;;
38264;SDS011;24062;47.480;8.768;2023-08-20T06:06:56;3.38;;;3.05;;
38264;SDS011;24062;47.480;8.768;2023-08-20T06:09:23;3.75;;;3.15;;
38264;SDS011;24062;47.480;8.768;2023-08-20T06:11:49;3.30;;;3.00;;
38264;SDS011;24062;47.480;8.768;2023-08-20T06:14:16;2.88;;;2.67;;
38264;SDS011;24062;47.480;8.768;2023-08-20T06:16:43;4.55;;;3.25;;
38264;SDS011;24062;47.480;8.768;2023-08-20T06:19:10;3.75;;;3.38;;
38264;SDS011;24062;47.480;8.768;2023-08-20T06:21:38;3.42;;;3.13;;
38264;SDS011;24062;47.480;8.768;2023-08-20T06:24:06;3.22;;;2.92;;
38264;SDS011;24062;47.480;8.768;2023-08-20T06:26:33;3.80;;;3.35;;
38264;SDS011;24062;47.480;8.768;2023-08-20T06:29:00;3.83;;;3.45;;
38264;SDS011;24062;47.480;8.768;2023-08-20T06:31:27;3.70;;;3.40;;
38264;SDS011;24062;47.480;8.768;2023-08-20T06:33:54;3.58;;;3.28;;
38264;SDS011;24062;47.480;8.768;2023-08-20T06:36:21;4.13;;;3.05;;
38264;SDS011;24062;47.480;8.768;2023-08-20T06:38:50;4.30;;;3.97;;
38264;SDS011;24062;47.480;8.768;2023-08-20T06:41:17;3.65;;;3.33;;
38264;SDS011;24062;47.480;8.768;2023-08-20T06:43:44;4.38;;;3.05;;
38264;SDS011;24062;47.480;8.768;2023-08-20T06:46:11;2.88;;;2.47;;
38264;SDS011;24062;47.480;8.768;2023-08-20T06:48:38;3.53;;;2.80;;
38264;SDS011;24062;47.480;8.768;2023-08-20T06:51:08;3.85;;;3.55;;
38264;SDS011;24062;47.480;8.768;2023-08-20T06:53:38;3.17;;;2.80;;
38264;SDS011;24062;47.480;8.768;2023-08-20T06:56:07;5.93;;;2.75;;
38264;SDS011;24062;47.480;8.768;2023-08-20T06:58:34;2.95;;;2.75;;
38264;SDS011;24062;47.480;8.768;2023-08-20T07:01:01;3.20;;;2.90;;
38264;SDS011;24062;47.480;8.768;2023-08-20T07:03:33;3.33;;;3.10;;
38264;SDS011;24062;47.480;8.768;2023-08-20T07:06:00;3.58;;;3.28;;
38264;SDS011;24062;47.480;8.768;2023-08-20T07:08:27;3.63;;;3.03;;
38264;SDS011;24062;47.480;8.768;2023-08-20T07:10:54;5.60;;;3.22;;
38264;SDS011;24062;47.480;8.768;2023-08-20T07:13:23;2.80;;;2.60;;
38264;SDS011;24062;47.480;8.768;2023-08-20T07:15:50;3.65;;;3.35;;
38264;SDS011;24062;47.480;8.768;2023-08-20T07:18:17;3.72;;;3.17;;
38264;SDS011;24062;47.480;8.768;2023-08-20T07:20:44;3.50;;;3.20;;
38264;SDS011;24062;47.480;8.768;2023-08-20T07:23:11;6.97;;;3.67;;
38264;SDS011;24062;47.480;8.768;2023-08-20T07:25:39;3.50;;;3.20;;
38264;SDS011;24062;47.480;8.768;2023-08-20T07:28:07;3.63;;;3.08;;
38264;SDS011;24062;47.480;8.768;2023-08-20T07:30:36;4.43;;;3.97;;
38264;SDS011;24062;47.480;8.768;2023-08-20T07:33:03;4.88;;;3.58;;
38264;SDS011;24062;47.480;8.768;2023-08-20T07:35:32;4.50;;;3.38;;
38264;SDS011;24062;47.480;8.768;2023-08-20T07:38:00;4.10;;;3.30;;
38264;SDS011;24062;47.480;8.768;2023-08-20T07:40:27;4.88;;;3.80;;
38264;SDS011;24062;47.480;8.768;2023-08-20T07:42:54;4.85;;;3.33;;
38264;SDS011;24062;47.480;8.768;2023-08-20T07:45:21;3.92;;;3.53;;
38264;SDS011;24062;47.480;8.768;2023-08-20T07:47:50;3.63;;;3.33;;
38264;SDS011;24062;47.480;8.768;2023-08-20T07:50:17;4.95;;;3.70;;
38264;SDS011;24062;47.480;8.768;2023-08-20T07:52:44;4.18;;;3.88;;
38264;SDS011;24062;47.480;8.768;2023-08-20T07:55:11;4.60;;;4.15;;
38264;SDS011;24062;47.480;8.768;2023-08-20T07:57:37;4.63;;;4.22;;
38264;SDS011;24062;47.480;8.768;2023-08-20T08:00:05;4.07;;;3.70;;
38264;SDS011;24062;47.480;8.768;2023-08-20T08:02:33;4.13;;;3.80;;
38264;SDS011;24062;47.480;8.768;2023-08-20T08:05:01;6.50;;;4.20;;
38264;SDS011;24062;47.480;8.768;2023-08-20T08:07:28;6.38;;;3.90;;
38264;SDS011;24062;47.480;8.768;2023-08-20T08:09:55;7.28;;;3.80;;
38264;SDS011;24062;47.480;8.768;2023-08-20T08:12:22;5.20;;;3.92;;
38264;SDS011;24062;47.480;8.768;2023-08-20T08:14:49;4.00;;;3.50;;
38264;SDS011;24062;47.480;8.768;2023-08-20T08:17:16;7.85;;;3.97;;
38264;SDS011;24062;47.480;8.768;2023-08-20T08:19:42;9.20;;;3.78;;
38264;SDS011;24062;47.480;8.768;2023-08-20T08:22:11;4.03;;;3.72;;
38264;SDS011;24062;47.480;8.768;2023-08-20T08:24:38;4.13;;;3.83;;
38264;SDS011;24062;47.480;8.768;2023-08-20T08:27:07;5.45;;;3.95;;
38264;SDS011;24062;47.480;8.768;2023-08-20T08:29:34;5.93;;;4.60;;
38264;SDS011;24062;47.480;8.768;2023-08-20T08:32:00;5.15;;;4.10;;
38264;SDS011;24062;47.480;8.768;2023-08-20T08:34:27;3.83;;;3.53;;
38264;SDS011;24062;47.480;8.768;2023-08-20T08:36:54;4.30;;;3.88;;
38264;SDS011;24062;47.480;8.768;2023-08-20T08:39:23;4.32;;;4.03;;
38264;SDS011;24062;47.480;8.768;2023-08-20T08:41:51;4.70;;;3.92;;
38264;SDS011;24062;47.480;8.768;2023-08-20T08:44:20;3.70;;;3.35;;
38264;SDS011;24062;47.480;8.768;2023-08-20T08:46:48;3.95;;;3.65;;
38264;SDS011;24062;47.480;8.768;2023-08-20T08:49:16;7.80;;;3.50;;
38264;SDS011;24062;47.480;8.768;2023-08-20T08:51:44;4.82;;;3.50;;
38264;SDS011;24062;47.480;8.768;2023-08-20T08:54:12;6.32;;;4.15;;
38264;SDS011;24062;47.480;8.768;2023-08-20T08:56:42;5.95;;;3.72;;
38264;SDS011;24062;47.480;8.768;2023-08-20T08:59:09;3.72;;;3.42;;
38264;SDS011;24062;47.480;8.768;2023-08-20T09:01:37;4.50;;;3.53;;
38264;SDS011;24062;47.480;8.768;2023-08-20T09:04:05;4.20;;;3.80;;
38264;SDS011;24062;47.480;8.768;2023-08-20T09:06:44;3.80;;;3.35;;
38264;SDS011;24062;47.480;8.768;2023-08-20T09:09:11;6.28;;;3.85;;
38264;SDS011;24062;47.480;8.768;2023-08-20T09:11:38;7.00;;;4.03;;
38264;SDS011;24062;47.480;8.768;2023-08-20T09:14:06;4.03;;;3.67;;
38264;SDS011;24062;47.480;8.768;2023-08-20T09:16:33;4.05;;;3.47;;
38264;SDS011;24062;47.480;8.768;2023-08-20T09:19:01;3.88;;;3.58;;
38264;SDS011;24062;47.480;8.768;2023-08-20T09:21:29;3.80;;;3.28;;
38264;SDS011;24062;47.480;8.768;2023-08-20T09:23:56;3.92;;;3.53;;
38264;SDS011;24062;47.480;8.768;2023-08-20T09:26:23;3.65;;;3.35;;
38264;SDS011;24062;47.480;8.768;2023-08-20T09:28:50;4.57;;;3.05;;
38264;SDS011;24062;47.480;8.768;2023-08-20T09:31:22;4.30;;;3.90;;
38264;SDS011;24062;47.480;8.768;2023-08-20T09:34:03;7.93;;;3.67;;
38264;SDS011;24062;47.480;8.768;2023-08-20T09:36:31;4.25;;;3.42;;
38264;SDS011;24062;47.480;8.768;2023-08-20T09:38:59;5.40;;;3.22;;
38264;SDS011;24062;47.480;8.768;2023-08-20T09:41:27;4.30;;;3.38;;
38264;SDS011;24062;47.480;8.768;2023-08-20T09:43:56;3.95;;;3.65;;
38264;SDS011;24062;47.480;8.768;2023-08-20T09:46:26;5.32;;;3.40;;
38264;SDS011;24062;47.480;8.768;2023-08-20T09:48:54;3.45;;;3.15;;
38264;SDS011;24062;47.480;8.768;2023-08-20T09:51:24;3.58;;;3.28;;
38264;SDS011;24062;47.480;8.768;2023-08-20T09:53:55;7.43;;;3.40;;
38264;SDS011;24062;47.480;8.768;2023-08-20T09:56:27;5.38;;;3.95;;
38264;SDS011;24062;47.480;8.768;2023-08-20T09:58:57;3.72;;;3.38;;
38264;SDS011;24062;47.480;8.768;2023-08-20T10:01:27;4.13;;;3.75;;
38264;SDS011;24062;47.480;8.768;2023-08-20T10:03:54;3.92;;;3.53;;
38264;SDS011;24062;47.480;8.768;2023-08-20T10:06:22;4.15;;;3.58;;
38264;SDS011;24062;47.480;8.768;2023-08-20T10:08:50;3.67;;;3.38;;
38264;SDS011;24062;47.480;8.768;2023-08-20T10:11:17;4.75;;;3.58;;
38264;SDS011;24062;47.480;8.768;2023-08-20T10:13:44;3.83;;;3.53;;
38264;SDS011;24062;47.480;8.768;2023-08-20T10:16:11;7.25;;;3.80;;
38264;SDS011;24062;47.480;8.768;2023-08-20T10:18:40;3.75;;;3.45;;
38264;SDS011;24062;47.480;8.768;2023-08-20T10:21:07;9.07;;;3.92;;
38264;SDS011;24062;47.480;8.768;2023-08-20T10:23:36;5.18;;;3.58;;
38264;SDS011;24062;47.480;8.768;2023-08-20T10:26:08;4.68;;;3.60;;
38264;SDS011;24062;47.480;8.768;2023-08-20T10:28:36;4.53;;;3.78;;
38264;SDS011;24062;47.480;8.768;2023-08-20T10:31:03;5.28;;;3.83;;
38264;SDS011;24062;47.480;8.768;2023-08-20T10:33:34;3.90;;;3.50;;
38264;SDS011;24062;47.480;8.768;2023-08-20T10:36:13;4.22;;;3.40;;
38264;SDS011;24062;47.480;8.768;2023-08-20T10:38:42;4.40;;;3.22;;
38264;SDS011;24062;47.480;8.768;2023-08-20T10:41:11;4.93;;;3.20;;
38264;SDS011;24062;47.480;8.768;2023-08-20T10:43:45;4.60;;;3.67;;
38264;SDS011;24062;47.480;8.768;2023-08-20T10:46:14;7.10;;;3.47;;
38264;SDS011;24062;47.480;8.768;2023-08-20T10:48:43;3.65;;;3.35;;
38264;SDS011;24062;47.480;8.768;2023-08-20T10:51:15;4.25;;;3.33;;
38264;SDS011;24062;47.480;8.768;2023-08-20T10:53:43;4.32;;;3.97;;
38264;SDS011;24062;47.480;8.768;2023-08-20T10:56:15;3.63;;;3.33;;
38264;SDS011;24062;47.480;8.768;2023-08-20T10:58:43;8.00;;;3.55;;
38264;SDS011;24062;47.480;8.768;2023-08-20T11:01:12;4.35;;;4.05;;
38264;SDS011;24062;47.480;8.768;2023-08-20T11:03:44;4.13;;;3.65;;
38264;SDS011;24062;47.480;8.768;2023-08-20T11:06:15;4.28;;;3.88;;
38264;SDS011;24062;47.480;8.768;2023-08-20T11:08:42;4.68;;;3.90;;
38264;SDS011;24062;47.480;8.768;2023-08-20T11:11:10;5.57;;;4.30;;
38264;SDS011;24062;47.480;8.768;2023-08-20T11:13:38;4.43;;;4.03;;
38264;SDS011;24062;47.480;8.768;2023-08-20T11:16:05;4.78;;;4.13;;
38264;SDS011;24062;47.480;8.768;2023-08-20T11:18:34;4.15;;;3.78;;
38264;SDS011;24062;47.480;8.768;2023-08-20T11:21:01;7.10;;;3.95;;
38264;SDS011;24062;47.480;8.768;2023-08-20T11:23:29;4.30;;;3.90;;
38264;SDS011;24062;47.480;8.768;2023-08-20T11:25:57;4.05;;;3.60;;
38264;SDS011;24062;47.480;8.768;2023-08-20T11:28:27;5.00;;;3.90;;
38264;SDS011;24062;47.480;8.768;2023-08-20T11:30:54;4.40;;;4.00;;
38264;SDS011;24062;47.480;8.768;2023-08-20T11:33:22;4.30;;;4.00;;
38264;SDS011;24062;47.480;8.768;2023-08-20T11:35:51;4.78;;;4.38;;
38264;SDS011;24062;47.480;8.768;2023-08-20T11:38:20;4.05;;;3.72;;
38264;SDS011;24062;47.480;8.768;2023-08-20T11:40:50;4.13;;;3.72;;
38264;SDS011;24062;47.480;8.768;2023-08-20T11:43:17;5.28;;;3.80;;
38264;SDS011;24062;47.480;8.768;2023-08-20T11:45:45;4.07;;;3.72;;
38264;SDS011;24062;47.480;8.768;2023-08-20T11:48:13;5.38;;;3.88;;
38264;SDS011;24062;47.480;8.768;2023-08-20T11:50:40;7.35;;;3.80;;
38264;SDS011;24062;47.480;8.768;2023-08-20T11:53:07;4.43;;;3.95;;
38264;SDS011;24062;47.480;8.768;2023-08-20T11:55:35;4.15;;;3.85;;
38264;SDS011;24062;47.480;8.768;2023-08-20T11:58:05;4.18;;;3.78;;
38264;SDS011;24062;47.480;8.768;2023-08-20T12:00:32;5.15;;;3.67;;
38264;SDS011;24062;47.480;8.768;2023-08-20T12:02:59;4.05;;;3.70;;
38264;SDS011;24062;47.480;8.768;2023-08-20T12:05:29;11.88;;;4.50;;
38264;SDS011;24062;47.480;8.768;2023-08-20T12:07:56;4.38;;;4.00;;
38264;SDS011;24062;47.480;8.768;2023-08-20T12:10:25;6.90;;;4.53;;
38264;SDS011;24062;47.480;8.768;2023-08-20T12:12:52;8.63;;;4.15;;
38264;SDS011;24062;47.480;8.768;2023-08-20T12:15:22;4.15;;;3.75;;
38264;SDS011;24062;47.480;8.768;2023-08-20T12:17:59;4.82;;;4.28;;
38264;SDS011;24062;47.480;8.768;2023-08-20T12:20:29;4.15;;;3.75;;
38264;SDS011;24062;47.480;8.768;2023-08-20T12:23:01;4.30;;;3.90;;
38264;SDS011;24062;47.480;8.768;2023-08-20T12:25:29;5.45;;;3.85;;
38264;SDS011;24062;47.480;8.768;2023-08-20T12:27:57;6.90;;;3.90;;
38264;SDS011;24062;47.480;8.768;2023-08-20T12:30:26;4.63;;;4.15;;
38264;SDS011;24062;47.480;8.768;2023-08-20T12:32:52;4.72;;;4.20;;
38264;SDS011;24062;47.480;8.768;2023-08-20T12:35:19;6.03;;;4.30;;
38264;SDS011;24062;47.480;8.768;2023-08-20T12:37:46;4.72;;;4.32;;
38264;SDS011;24062;47.480;8.768;2023-08-20T12:40:13;5.20;;;3.75;;
38264;SDS011;24062;47.480;8.768;2023-08-20T12:42:40;4.20;;;3.75;;
38264;SDS011;24062;47.480;8.768;2023-08-20T12:45:08;4.45;;;4.05;;
38264;SDS011;24062;47.480;8.768;2023-08-20T12:47:37;4.28;;;3.88;;
38264;SDS011;24062;47.480;8.768;2023-08-20T12:50:04;4.00;;;3.70;;
38264;SDS011;24062;47.480;8.768;2023-08-20T12:52:32;6.53;;;4.10;;
38264;SDS011;24062;47.480;8.768;2023-08-20T12:54:59;4.05;;;3.55;;
38264;SDS011;24062;47.480;8.768;2023-08-20T12:57:26;4.28;;;3.88;;
38264;SDS011;24062;47.480;8.768;2023-08-20T12:59:53;3.97;;;3.63;;
38264;SDS011;24062;47.480;8.768;2023-08-20T13:02:20;4.93;;;3.70;;
38264;SDS011;24062;47.480;8.768;2023-08-20T13:04:48;6.45;;;3.80;;
38264;SDS011;24062;47.480;8.768;2023-08-20T13:07:16;5.28;;;3.65;;
38264;SDS011;24062;47.480;8.768;2023-08-20T13:09:44;3.80;;;3.42;;
38264;SDS011;24062;47.480;8.768;2023-08-20T13:12:11;5.53;;;3.50;;
38264;SDS011;24062;47.480;8.768;2023-08-20T13:14:39;4.28;;;3.67;;
38264;SDS011;24062;47.480;8.768;2023-08-20T13:17:07;6.07;;;3.80;;
38264;SDS011;24062;47.480;8.768;2023-08-20T13:19:35;4.65;;;3.33;;
38264;SDS011;24062;47.480;8.768;2023-08-20T13:22:04;4.80;;;3.40;;
38264;SDS011;24062;47.480;8.768;2023-08-20T13:24:31;4.63;;;3.50;;
38264;SDS011;24062;47.480;8.768;2023-08-20T13:26:58;4.22;;;3.65;;
38264;SDS011;24062;47.480;8.768;2023-08-20T13:29:25;5.82;;;3.78;;
38264;SDS011;24062;47.480;8.768;2023-08-20T13:31:52;4.78;;;3.53;;
38264;SDS011;24062;47.480;8.768;2023-08-20T13:34:19;3.38;;;3.08;;
38264;SDS011;24062;47.480;8.768;2023-08-20T13:36:46;4.00;;;3.67;;
38264;SDS011;24062;47.480;8.768;2023-08-20T13:39:14;4.55;;;4.15;;
38264;SDS011;24062;47.480;8.768;2023-08-20T13:41:43;3.95;;;3.58;;
38264;SDS011;24062;47.480;8.768;2023-08-20T13:44:10;4.20;;;3.40;;
38264;SDS011;24062;47.480;8.768;2023-08-20T13:46:37;4.25;;;3.85;;
38264;SDS011;24062;47.480;8.768;2023-08-20T13:49:04;4.05;;;3.35;;
38264;SDS011;24062;47.480;8.768;2023-08-20T13:51:31;3.40;;;3.10;;
38264;SDS011;24062;47.480;8.768;2023-08-20T13:53:58;3.65;;;3.22;;
38264;SDS011;24062;47.480;8.768;2023-08-20T13:56:26;5.28;;;3.40;;
38264;SDS011;24062;47.480;8.768;2023-08-20T13:58:53;4.03;;;3.47;;
38264;SDS011;24062;47.480;8.768;2023-08-20T14:01:20;10.38;;;3.20;;
38264;SDS011;24062;47.480;8.768;2023-08-20T14:03:47;3.67;;;3.20;;
38264;SDS011;24062;47.480;8.768;2023-08-20T14:06:15;3.40;;;2.97;;
38264;SDS011;24062;47.480;8.768;2023-08-20T14:08:42;7.68;;;3.10;;
38264;SDS011;24062;47.480;8.768;2023-08-20T14:11:09;3.67;;;2.97;;
38264;SDS011;24062;47.480;8.768;2023-08-20T14:13:37;5.85;;;3.50;;
38264;SDS011;24062;47.480;8.768;2023-08-20T14:16:04;3.15;;;2.80;;
38264;SDS011;24062;47.480;8.768;2023-08-20T14:18:31;3.90;;;3.50;;
38264;SDS011;24062;47.480;8.768;2023-08-20T14:20:58;5.13;;;3.05;;
38264;SDS011;24062;47.480;8.768;2023-08-20T14:23:25;3.75;;;2.92;;
38264;SDS011;24062;47.480;8.768;2023-08-20T14:25:52;4.63;;;3.10;;
38264;SDS011;24062;47.480;8.768;2023-08-20T14:28:19;8.05;;;2.88;;
38264;SDS011;24062;47.480;8.768;2023-08-20T14:30:48;5.40;;;3.30;;
38264;SDS011;24062;47.480;8.768;2023-08-20T14:33:16;3.20;;;2.80;;
38264;SDS011;24062;47.480;8.768;2023-08-20T14:35:43;8.15;;;3.63;;
38264;SDS011;24062;47.480;8.768;2023-08-20T14:38:10;9.13;;;3.28;;
38264;SDS011;24062;47.480;8.768;2023-08-20T14:40:39;3.50;;;2.90;;
38264;SDS011;24062;47.480;8.768;2023-08-20T14:43:06;4.15;;;2.88;;
38264;SDS011;24062;47.480;8.768;2023-08-20T14:45:33;3.65;;;3.10;;
38264;SDS011;24062;47.480;8.768;2023-08-20T14:48:02;4.43;;;3.28;;
38264;SDS011;24062;47.480;8.768;2023-08-20T14:50:29;4.25;;;3.22;;
38264;SDS011;24062;47.480;8.768;2023-08-20T14:52:56;2.90;;;2.60;;
38264;SDS011;24062;47.480;8.768;2023-08-20T14:55:23;3.20;;;2.80;;